TGPY/GND METAR and TAF weather

Enter ICAO airport designator
Station Type Date Time Source
TGPY METAR 2020/04/02 03:00 UTC NOAA

TGPY 020300Z 09015KT 9999 FEW020 26/21 Q1013 NOSIG


Station Type Date Time Source
TGPY Decoded METAR 2020/04/02 03:00 UTC NOAA

Point Salines Airport, Grenada (TGPY) 12-00N 061-47W 7M
Apr 01, 2020 - 11:00 PM EDT / 2020.04.02 0300 UTC
Wind: from the E (090 degrees) at 17 MPH (15 KT):0
Visibility: greater than 7 mile(s):0
Sky conditions: mostly clear
Temperature: 78 F (26 C)
Dew Point: 69 F (21 C)
Relative Humidity: 73%
Pressure (altimeter): 29.91 in. Hg (1013 hPa)
ob: TGPY 020300Z 09015KT 9999 FEW020 26/21 Q1013 NOSIG
cycle: 3

Station Type Date Time Source
TGPY TAF 2020/04/02 06:26 UTC NOAA

TAF TGPY 020326Z 0206/031809005KT 9999 FEW022
BECMG 02112/0214 11013KT

Example: see airport list